Terminal Aerodrome Forecast
Issued by NWS Charleston, WV

Current Version | Previous Version | Text Only | Print | Product List | Glossary Off
Versions: 1 2 3 4 5 6 7 8 9 10 11 12 13 14 15 16 17 18 19 20 21

000
FTUS41 KRLX 220500 RRA
TAFPKB
TAF
KPKB 220556Z 2206/2306 30007KT P6SM OVC015
     FM222300 34003KT P6SM OVC020=

USA.gov is the U.S. government's official web portal to all federal, state and local government web resources and services.